sensor_id;sensor_type;location;lat;lon;timestamp;P1;durP1;ratioP1;P2;durP2;ratioP2
82938;SDS011;72714;52.744;4.900;2023-10-09T00:00:34;24.27;;;17.65;;
82938;SDS011;72714;52.744;4.900;2023-10-09T00:03:03;26.63;;;18.27;;
82938;SDS011;72714;52.744;4.900;2023-10-09T00:05:29;29.33;;;18.98;;
82938;SDS011;72714;52.744;4.900;2023-10-09T00:08:15;30.25;;;20.75;;
82938;SDS011;72714;52.744;4.900;2023-10-09T00:10:47;26.35;;;18.52;;
82938;SDS011;72714;52.744;4.900;2023-10-09T00:13:24;26.98;;;18.10;;
82938;SDS011;72714;52.744;4.900;2023-10-09T00:15:56;26.33;;;16.88;;
82938;SDS011;72714;52.744;4.900;2023-10-09T00:18:27;26.58;;;17.35;;
82938;SDS011;72714;52.744;4.900;2023-10-09T00:20:58;25.30;;;15.55;;
82938;SDS011;72714;52.744;4.900;2023-10-09T00:23:37;22.93;;;14.60;;
82938;SDS011;72714;52.744;4.900;2023-10-09T00:26:03;23.83;;;14.45;;
82938;SDS011;72714;52.744;4.900;2023-10-09T00:28:41;22.13;;;13.98;;
82938;SDS011;72714;52.744;4.900;2023-10-09T00:31:12;21.30;;;14.05;;
82938;SDS011;72714;52.744;4.900;2023-10-09T00:33:44;24.10;;;13.25;;
82938;SDS011;72714;52.744;4.900;2023-10-09T00:36:09;22.20;;;12.70;;
82938;SDS011;72714;52.744;4.900;2023-10-09T00:38:35;18.67;;;11.63;;
82938;SDS011;72714;52.744;4.900;2023-10-09T00:41:03;23.30;;;12.45;;
82938;SDS011;72714;52.744;4.900;2023-10-09T00:43:31;20.95;;;11.75;;
82938;SDS011;72714;52.744;4.900;2023-10-09T00:46:00;19.92;;;11.23;;
82938;SDS011;72714;52.744;4.900;2023-10-09T00:48:37;19.23;;;10.80;;
82938;SDS011;72714;52.744;4.900;2023-10-09T00:51:06;18.08;;;9.95;;
82938;SDS011;72714;52.744;4.900;2023-10-09T00:53:48;17.65;;;10.00;;
82938;SDS011;72714;52.744;4.900;2023-10-09T00:56:18;17.00;;;9.88;;
82938;SDS011;72714;52.744;4.900;2023-10-09T00:58:46;18.05;;;9.20;;
82938;SDS011;72714;52.744;4.900;2023-10-09T01:01:15;19.73;;;9.45;;
82938;SDS011;72714;52.744;4.900;2023-10-09T01:03:41;18.90;;;9.20;;
82938;SDS011;72714;52.744;4.900;2023-10-09T01:06:08;18.38;;;9.82;;
82938;SDS011;72714;52.744;4.900;2023-10-09T01:08:34;18.90;;;9.40;;
82938;SDS011;72714;52.744;4.900;2023-10-09T01:11:06;18.40;;;9.63;;
82938;SDS011;72714;52.744;4.900;2023-10-09T01:13:38;18.13;;;9.13;;
82938;SDS011;72714;52.744;4.900;2023-10-09T01:16:17;16.07;;;8.53;;
82938;SDS011;72714;52.744;4.900;2023-10-09T01:18:44;16.75;;;9.20;;
82938;SDS011;72714;52.744;4.900;2023-10-09T01:21:12;15.77;;;8.63;;
82938;SDS011;72714;52.744;4.900;2023-10-09T01:23:39;14.82;;;7.97;;
82938;SDS011;72714;52.744;4.900;2023-10-09T01:26:09;15.45;;;7.57;;
82938;SDS011;72714;52.744;4.900;2023-10-09T01:28:35;16.50;;;8.20;;
82938;SDS011;72714;52.744;4.900;2023-10-09T01:31:00;18.13;;;7.73;;
82938;SDS011;72714;52.744;4.900;2023-10-09T01:33:26;15.10;;;7.90;;
82938;SDS011;72714;52.744;4.900;2023-10-09T01:35:53;16.33;;;8.03;;
82938;SDS011;72714;52.744;4.900;2023-10-09T01:38:23;18.67;;;8.93;;
82938;SDS011;72714;52.744;4.900;2023-10-09T01:41:05;14.45;;;7.70;;
82938;SDS011;72714;52.744;4.900;2023-10-09T01:43:33;16.95;;;8.07;;
82938;SDS011;72714;52.744;4.900;2023-10-09T01:46:00;16.48;;;7.25;;
82938;SDS011;72714;52.744;4.900;2023-10-09T01:48:27;14.65;;;7.60;;
82938;SDS011;72714;52.744;4.900;2023-10-09T01:50:53;17.20;;;7.73;;
82938;SDS011;72714;52.744;4.900;2023-10-09T01:53:19;16.08;;;8.32;;
82938;SDS011;72714;52.744;4.900;2023-10-09T01:55:47;17.27;;;8.32;;
82938;SDS011;72714;52.744;4.900;2023-10-09T01:58:14;16.13;;;8.10;;
82938;SDS011;72714;52.744;4.900;2023-10-09T02:00:52;17.25;;;8.00;;
82938;SDS011;72714;52.744;4.900;2023-10-09T02:03:21;20.48;;;8.40;;
82938;SDS011;72714;52.744;4.900;2023-10-09T02:05:51;15.60;;;7.55;;
82938;SDS011;72714;52.744;4.900;2023-10-09T02:08:19;15.00;;;7.53;;
82938;SDS011;72714;52.744;4.900;2023-10-09T02:10:51;14.52;;;7.38;;
82938;SDS011;72714;52.744;4.900;2023-10-09T02:13:20;13.77;;;7.30;;
82938;SDS011;72714;52.744;4.900;2023-10-09T02:15:55;14.23;;;6.95;;
82938;SDS011;72714;52.744;4.900;2023-10-09T02:18:24;14.32;;;7.05;;
82938;SDS011;72714;52.744;4.900;2023-10-09T02:23:33;16.05;;;7.10;;
82938;SDS011;72714;52.744;4.900;2023-10-09T02:26:15;14.88;;;7.45;;
82938;SDS011;72714;52.744;4.900;2023-10-09T02:28:51;14.65;;;6.82;;
82938;SDS011;72714;52.744;4.900;2023-10-09T02:31:40;14.27;;;7.63;;
82938;SDS011;72714;52.744;4.900;2023-10-09T02:34:09;14.75;;;7.60;;
82938;SDS011;72714;52.744;4.900;2023-10-09T02:36:39;15.23;;;7.50;;
82938;SDS011;72714;52.744;4.900;2023-10-09T02:39:07;14.00;;;7.50;;
82938;SDS011;72714;52.744;4.900;2023-10-09T02:41:54;16.33;;;7.60;;
82938;SDS011;72714;52.744;4.900;2023-10-09T02:44:27;16.33;;;7.50;;
82938;SDS011;72714;52.744;4.900;2023-10-09T02:47:04;13.45;;;7.30;;
82938;SDS011;72714;52.744;4.900;2023-10-09T02:49:37;17.85;;;8.07;;
82938;SDS011;72714;52.744;4.900;2023-10-09T02:52:05;14.30;;;7.20;;
82938;SDS011;72714;52.744;4.900;2023-10-09T02:54:32;15.15;;;7.68;;
82938;SDS011;72714;52.744;4.900;2023-10-09T02:57:01;14.85;;;7.18;;
82938;SDS011;72714;52.744;4.900;2023-10-09T02:59:36;13.10;;;6.63;;
82938;SDS011;72714;52.744;4.900;2023-10-09T03:02:10;12.70;;;6.57;;
82938;SDS011;72714;52.744;4.900;2023-10-09T03:04:36;12.77;;;6.28;;
82938;SDS011;72714;52.744;4.900;2023-10-09T03:07:04;16.83;;;7.45;;
82938;SDS011;72714;52.744;4.900;2023-10-09T03:09:29;14.35;;;6.68;;
82938;SDS011;72714;52.744;4.900;2023-10-09T03:11:58;15.60;;;7.10;;
82938;SDS011;72714;52.744;4.900;2023-10-09T03:14:29;13.10;;;6.60;;
82938;SDS011;72714;52.744;4.900;2023-10-09T03:16:55;15.13;;;6.85;;
82938;SDS011;72714;52.744;4.900;2023-10-09T03:19:22;15.52;;;7.10;;
82938;SDS011;72714;52.744;4.900;2023-10-09T03:21:50;14.30;;;7.22;;
82938;SDS011;72714;52.744;4.900;2023-10-09T03:24:15;15.63;;;6.97;;
82938;SDS011;72714;52.744;4.900;2023-10-09T03:26:41;16.03;;;6.73;;
82938;SDS011;72714;52.744;4.900;2023-10-09T03:29:06;14.87;;;6.63;;
82938;SDS011;72714;52.744;4.900;2023-10-09T03:31:38;13.07;;;6.70;;
82938;SDS011;72714;52.744;4.900;2023-10-09T03:34:04;14.40;;;7.30;;
82938;SDS011;72714;52.744;4.900;2023-10-09T03:36:30;16.10;;;6.63;;
82938;SDS011;72714;52.744;4.900;2023-10-09T03:38:56;13.93;;;6.70;;
82938;SDS011;72714;52.744;4.900;2023-10-09T03:41:26;13.52;;;6.68;;
82938;SDS011;72714;52.744;4.900;2023-10-09T03:43:52;13.95;;;6.60;;
82938;SDS011;72714;52.744;4.900;2023-10-09T03:46:19;17.30;;;6.93;;
82938;SDS011;72714;52.744;4.900;2023-10-09T03:48:49;13.57;;;6.22;;
82938;SDS011;72714;52.744;4.900;2023-10-09T03:51:17;14.63;;;6.80;;
82938;SDS011;72714;52.744;4.900;2023-10-09T03:53:48;13.47;;;6.83;;
82938;SDS011;72714;52.744;4.900;2023-10-09T03:56:14;14.85;;;6.63;;
82938;SDS011;72714;52.744;4.900;2023-10-09T03:58:42;13.10;;;6.45;;
82938;SDS011;72714;52.744;4.900;2023-10-09T04:01:18;13.73;;;6.93;;
82938;SDS011;72714;52.744;4.900;2023-10-09T04:03:53;15.93;;;6.72;;
82938;SDS011;72714;52.744;4.900;2023-10-09T04:06:25;14.23;;;6.70;;
82938;SDS011;72714;52.744;4.900;2023-10-09T04:08:56;15.50;;;7.00;;
82938;SDS011;72714;52.744;4.900;2023-10-09T04:11:23;13.93;;;6.50;;
82938;SDS011;72714;52.744;4.900;2023-10-09T04:13:49;14.20;;;6.53;;
82938;SDS011;72714;52.744;4.900;2023-10-09T04:16:17;12.38;;;6.47;;
82938;SDS011;72714;52.744;4.900;2023-10-09T04:19:05;13.68;;;6.57;;
82938;SDS011;72714;52.744;4.900;2023-10-09T04:21:37;14.27;;;6.43;;
82938;SDS011;72714;52.744;4.900;2023-10-09T04:24:06;14.73;;;6.60;;
82938;SDS011;72714;52.744;4.900;2023-10-09T04:26:39;14.63;;;6.50;;
82938;SDS011;72714;52.744;4.900;2023-10-09T04:29:14;15.13;;;6.80;;
82938;SDS011;72714;52.744;4.900;2023-10-09T04:31:56;15.00;;;6.85;;
82938;SDS011;72714;52.744;4.900;2023-10-09T04:34:22;15.43;;;6.30;;
82938;SDS011;72714;52.744;4.900;2023-10-09T04:36:52;17.92;;;7.22;;
82938;SDS011;72714;52.744;4.900;2023-10-09T04:39:42;13.93;;;6.82;;
82938;SDS011;72714;52.744;4.900;2023-10-09T04:42:14;16.60;;;6.97;;
82938;SDS011;72714;52.744;4.900;2023-10-09T04:44:49;15.68;;;7.50;;
82938;SDS011;72714;52.744;4.900;2023-10-09T04:47:30;15.60;;;7.40;;
82938;SDS011;72714;52.744;4.900;2023-10-09T04:52:37;15.13;;;7.60;;
82938;SDS011;72714;52.744;4.900;2023-10-09T04:55:03;16.27;;;7.03;;
82938;SDS011;72714;52.744;4.900;2023-10-09T04:57:31;19.65;;;7.78;;
82938;SDS011;72714;52.744;4.900;2023-10-09T05:00:11;15.23;;;7.25;;
82938;SDS011;72714;52.744;4.900;2023-10-09T05:02:53;15.95;;;7.20;;
82938;SDS011;72714;52.744;4.900;2023-10-09T05:05:23;17.55;;;7.32;;
82938;SDS011;72714;52.744;4.900;2023-10-09T05:08:08;16.00;;;7.70;;
82938;SDS011;72714;52.744;4.900;2023-10-09T05:10:43;15.15;;;6.93;;
82938;SDS011;72714;52.744;4.900;2023-10-09T05:16:13;20.80;;;7.90;;
82938;SDS011;72714;52.744;4.900;2023-10-09T05:18:52;19.65;;;7.82;;
82938;SDS011;72714;52.744;4.900;2023-10-09T05:21:22;16.75;;;7.57;;
82938;SDS011;72714;52.744;4.900;2023-10-09T05:24:01;17.55;;;7.55;;
82938;SDS011;72714;52.744;4.900;2023-10-09T05:26:41;19.83;;;8.07;;
82938;SDS011;72714;52.744;4.900;2023-10-09T05:29:13;17.10;;;7.32;;
82938;SDS011;72714;52.744;4.900;2023-10-09T05:31:58;18.73;;;7.40;;
82938;SDS011;72714;52.744;4.900;2023-10-09T05:34:44;18.73;;;7.88;;
82938;SDS011;72714;52.744;4.900;2023-10-09T05:37:25;16.25;;;7.35;;
82938;SDS011;72714;52.744;4.900;2023-10-09T05:39:58;16.23;;;7.15;;
82938;SDS011;72714;52.744;4.900;2023-10-09T05:42:28;18.13;;;7.38;;
82938;SDS011;72714;52.744;4.900;2023-10-09T05:47:48;17.48;;;7.70;;
82938;SDS011;72714;52.744;4.900;2023-10-09T05:50:29;18.38;;;7.45;;
82938;SDS011;72714;52.744;4.900;2023-10-09T05:53:02;18.55;;;7.18;;
82938;SDS011;72714;52.744;4.900;2023-10-09T05:55:33;21.92;;;7.60;;
82938;SDS011;72714;52.744;4.900;2023-10-09T05:58:33;18.92;;;7.72;;
82938;SDS011;72714;52.744;4.900;2023-10-09T06:01:28;19.20;;;7.88;;
82938;SDS011;72714;52.744;4.900;2023-10-09T06:04:12;18.67;;;7.40;;
82938;SDS011;72714;52.744;4.900;2023-10-09T06:06:41;18.85;;;8.45;;
82938;SDS011;72714;52.744;4.900;2023-10-09T06:09:21;18.50;;;8.00;;
82938;SDS011;72714;52.744;4.900;2023-10-09T06:11:47;17.00;;;7.50;;
82938;SDS011;72714;52.744;4.900;2023-10-09T06:14:17;16.85;;;7.82;;
82938;SDS011;72714;52.744;4.900;2023-10-09T06:16:57;17.55;;;7.93;;
82938;SDS011;72714;52.744;4.900;2023-10-09T06:19:26;17.85;;;7.32;;
82938;SDS011;72714;52.744;4.900;2023-10-09T06:21:56;13.70;;;6.85;;
82938;SDS011;72714;52.744;4.900;2023-10-09T06:24:28;17.53;;;7.43;;
82938;SDS011;72714;52.744;4.900;2023-10-09T06:27:02;18.90;;;7.90;;
82938;SDS011;72714;52.744;4.900;2023-10-09T06:29:32;16.50;;;7.10;;
82938;SDS011;72714;52.744;4.900;2023-10-09T06:34:42;15.50;;;7.63;;
82938;SDS011;72714;52.744;4.900;2023-10-09T06:37:10;16.35;;;7.93;;
82938;SDS011;72714;52.744;4.900;2023-10-09T06:40:01;18.30;;;7.15;;
82938;SDS011;72714;52.744;4.900;2023-10-09T06:42:56;16.75;;;6.80;;
82938;SDS011;72714;52.744;4.900;2023-10-09T06:45:21;16.87;;;7.30;;
82938;SDS011;72714;52.744;4.900;2023-10-09T06:47:47;15.55;;;6.47;;
82938;SDS011;72714;52.744;4.900;2023-10-09T06:50:35;16.23;;;7.68;;
82938;SDS011;72714;52.744;4.900;2023-10-09T06:53:19;15.32;;;7.10;;
82938;SDS011;72714;52.744;4.900;2023-10-09T06:55:45;16.70;;;7.20;;
82938;SDS011;72714;52.744;4.900;2023-10-09T06:58:14;18.63;;;7.03;;
82938;SDS011;72714;52.744;4.900;2023-10-09T07:00:52;13.52;;;6.40;;
82938;SDS011;72714;52.744;4.900;2023-10-09T07:03:29;16.48;;;7.00;;
82938;SDS011;72714;52.744;4.900;2023-10-09T07:08:55;13.93;;;6.77;;
82938;SDS011;72714;52.744;4.900;2023-10-09T07:14:08;16.17;;;7.20;;
82938;SDS011;72714;52.744;4.900;2023-10-09T07:16:56;19.58;;;7.78;;
82938;SDS011;72714;52.744;4.900;2023-10-09T07:19:28;15.55;;;6.75;;
82938;SDS011;72714;52.744;4.900;2023-10-09T07:22:05;17.93;;;7.80;;
82938;SDS011;72714;52.744;4.900;2023-10-09T07:24:41;16.17;;;7.07;;
82938;SDS011;72714;52.744;4.900;2023-10-09T07:27:16;13.30;;;6.13;;
82938;SDS011;72714;52.744;4.900;2023-10-09T07:29:42;18.67;;;7.63;;
82938;SDS011;72714;52.744;4.900;2023-10-09T07:32:14;18.50;;;7.45;;
82938;SDS011;72714;52.744;4.900;2023-10-09T07:34:49;18.55;;;6.93;;
82938;SDS011;72714;52.744;4.900;2023-10-09T07:37:24;16.70;;;7.07;;
82938;SDS011;72714;52.744;4.900;2023-10-09T07:39:56;15.63;;;7.22;;
82938;SDS011;72714;52.744;4.900;2023-10-09T07:42:25;16.75;;;7.05;;
82938;SDS011;72714;52.744;4.900;2023-10-09T07:45:20;14.10;;;6.85;;
82938;SDS011;72714;52.744;4.900;2023-10-09T07:47:46;16.67;;;6.63;;
82938;SDS011;72714;52.744;4.900;2023-10-09T07:50:34;14.85;;;6.78;;
82938;SDS011;72714;52.744;4.900;2023-10-09T07:53:09;16.27;;;7.03;;
82938;SDS011;72714;52.744;4.900;2023-10-09T07:55:43;15.93;;;7.03;;
82938;SDS011;72714;52.744;4.900;2023-10-09T07:58:20;18.25;;;7.45;;
82938;SDS011;72714;52.744;4.900;2023-10-09T08:00:56;16.57;;;7.33;;
82938;SDS011;72714;52.744;4.900;2023-10-09T08:03:33;17.95;;;7.65;;
82938;SDS011;72714;52.744;4.900;2023-10-09T08:06:01;18.38;;;7.38;;
82938;SDS011;72714;52.744;4.900;2023-10-09T08:08:52;16.67;;;7.40;;
82938;SDS011;72714;52.744;4.900;2023-10-09T08:11:36;19.00;;;7.70;;
82938;SDS011;72714;52.744;4.900;2023-10-09T08:14:05;17.27;;;7.80;;
82938;SDS011;72714;52.744;4.900;2023-10-09T08:16:54;15.75;;;7.43;;
82938;SDS011;72714;52.744;4.900;2023-10-09T08:19:46;17.10;;;7.45;;
82938;SDS011;72714;52.744;4.900;2023-10-09T08:22:28;17.52;;;6.85;;
82938;SDS011;72714;52.744;4.900;2023-10-09T08:24:54;16.63;;;7.07;;
82938;SDS011;72714;52.744;4.900;2023-10-09T08:30:01;17.67;;;7.47;;
82938;SDS011;72714;52.744;4.900;2023-10-09T08:32:43;16.80;;;7.13;;
82938;SDS011;72714;52.744;4.900;2023-10-09T08:35:36;19.38;;;7.43;;
82938;SDS011;72714;52.744;4.900;2023-10-09T08:38:14;17.67;;;7.27;;
82938;SDS011;72714;52.744;4.900;2023-10-09T08:40:42;16.27;;;6.95;;
82938;SDS011;72714;52.744;4.900;2023-10-09T08:43:20;17.48;;;7.90;;
82938;SDS011;72714;52.744;4.900;2023-10-09T08:45:48;17.33;;;7.20;;
82938;SDS011;72714;52.744;4.900;2023-10-09T08:48:17;15.60;;;7.32;;
82938;SDS011;72714;52.744;4.900;2023-10-09T08:50:46;23.27;;;8.25;;
82938;SDS011;72714;52.744;4.900;2023-10-09T08:53:13;16.42;;;7.78;;
82938;SDS011;72714;52.744;4.900;2023-10-09T08:55:41;14.20;;;6.88;;
82938;SDS011;72714;52.744;4.900;2023-10-09T08:58:07;16.10;;;6.82;;
82938;SDS011;72714;52.744;4.900;2023-10-09T09:00:55;18.98;;;7.30;;
82938;SDS011;72714;52.744;4.900;2023-10-09T09:03:23;15.35;;;7.10;;
82938;SDS011;72714;52.744;4.900;2023-10-09T09:06:00;16.05;;;6.78;;
82938;SDS011;72714;52.744;4.900;2023-10-09T09:08:27;17.92;;;7.65;;
82938;SDS011;72714;52.744;4.900;2023-10-09T09:13:38;14.65;;;6.72;;
82938;SDS011;72714;52.744;4.900;2023-10-09T09:16:40;15.55;;;7.13;;
82938;SDS011;72714;52.744;4.900;2023-10-09T09:21:39;15.77;;;6.82;;
82938;SDS011;72714;52.744;4.900;2023-10-09T09:24:07;16.27;;;6.85;;
82938;SDS011;72714;52.744;4.900;2023-10-09T09:26:40;16.92;;;7.13;;
82938;SDS011;72714;52.744;4.900;2023-10-09T09:29:12;13.35;;;6.70;;
82938;SDS011;72714;52.744;4.900;2023-10-09T09:31:42;15.70;;;6.82;;
82938;SDS011;72714;52.744;4.900;2023-10-09T09:34:17;15.10;;;6.93;;
82938;SDS011;72714;52.744;4.900;2023-10-09T09:36:53;16.13;;;6.43;;
82938;SDS011;72714;52.744;4.900;2023-10-09T09:39:20;13.90;;;6.33;;
82938;SDS011;72714;52.744;4.900;2023-10-09T09:41:53;16.98;;;7.38;;
82938;SDS011;72714;52.744;4.900;2023-10-09T09:44:21;15.63;;;7.07;;
82938;SDS011;72714;52.744;4.900;2023-10-09T09:46:51;14.35;;;7.00;;
82938;SDS011;72714;52.744;4.900;2023-10-09T09:49:18;18.13;;;7.13;;
82938;SDS011;72714;52.744;4.900;2023-10-09T09:51:47;14.90;;;6.97;;
82938;SDS011;72714;52.744;4.900;2023-10-09T09:54:15;16.35;;;6.88;;
82938;SDS011;72714;52.744;4.900;2023-10-09T09:56:44;15.60;;;6.97;;
82938;SDS011;72714;52.744;4.900;2023-10-09T09:59:17;15.18;;;6.63;;
82938;SDS011;72714;52.744;4.900;2023-10-09T10:01:47;17.53;;;7.07;;
82938;SDS011;72714;52.744;4.900;2023-10-09T10:04:22;17.17;;;6.90;;
82938;SDS011;72714;52.744;4.900;2023-10-09T10:06:53;15.35;;;6.93;;
82938;SDS011;72714;52.744;4.900;2023-10-09T10:12:04;15.05;;;6.18;;
82938;SDS011;72714;52.744;4.900;2023-10-09T10:17:22;15.75;;;6.53;;
82938;SDS011;72714;52.744;4.900;2023-10-09T10:22:25;15.40;;;6.85;;
82938;SDS011;72714;52.744;4.900;2023-10-09T10:24:55;13.85;;;6.68;;
82938;SDS011;72714;52.744;4.900;2023-10-09T10:27:22;16.15;;;6.68;;
82938;SDS011;72714;52.744;4.900;2023-10-09T10:35:17;15.30;;;6.72;;
82938;SDS011;72714;52.744;4.900;2023-10-09T10:37:46;15.48;;;6.43;;
82938;SDS011;72714;52.744;4.900;2023-10-09T10:40:26;14.93;;;6.72;;
82938;SDS011;72714;52.744;4.900;2023-10-09T10:43:06;20.20;;;7.47;;
82938;SDS011;72714;52.744;4.900;2023-10-09T10:45:38;16.23;;;6.43;;
82938;SDS011;72714;52.744;4.900;2023-10-09T10:48:09;14.40;;;6.93;;
82938;SDS011;72714;52.744;4.900;2023-10-09T10:50:57;15.35;;;6.78;;
82938;SDS011;72714;52.744;4.900;2023-10-09T10:53:22;17.67;;;6.93;;
82938;SDS011;72714;52.744;4.900;2023-10-09T10:55:57;16.42;;;6.88;;
82938;SDS011;72714;52.744;4.900;2023-10-09T10:58:23;16.50;;;7.00;;
82938;SDS011;72714;52.744;4.900;2023-10-09T11:00:53;14.02;;;6.07;;
82938;SDS011;72714;52.744;4.900;2023-10-09T11:03:22;15.73;;;7.25;;
82938;SDS011;72714;52.744;4.900;2023-10-09T11:05:55;14.40;;;6.50;;
82938;SDS011;72714;52.744;4.900;2023-10-09T11:08:38;15.30;;;6.78;;
82938;SDS011;72714;52.744;4.900;2023-10-09T11:11:20;17.35;;;7.25;;
82938;SDS011;72714;52.744;4.900;2023-10-09T11:13:46;15.83;;;7.10;;
82938;SDS011;72714;52.744;4.900;2023-10-09T11:16:22;15.05;;;7.07;;
82938;SDS011;72714;52.744;4.900;2023-10-09T11:19:00;15.13;;;6.97;;
82938;SDS011;72714;52.744;4.900;2023-10-09T11:21:37;15.50;;;6.67;;
82938;SDS011;72714;52.744;4.900;2023-10-09T11:24:07;17.63;;;6.90;;
82938;SDS011;72714;52.744;4.900;2023-10-09T11:26:51;16.20;;;6.50;;
82938;SDS011;72714;52.744;4.900;2023-10-09T11:29:21;16.92;;;7.10;;
82938;SDS011;72714;52.744;4.900;2023-10-09T11:32:06;17.13;;;6.75;;
82938;SDS011;72714;52.744;4.900;2023-10-09T11:34:46;13.30;;;6.50;;
82938;SDS011;72714;52.744;4.900;2023-10-09T11:37:22;14.33;;;6.97;;
82938;SDS011;72714;52.744;4.900;2023-10-09T11:40:27;14.15;;;6.78;;
82938;SDS011;72714;52.744;4.900;2023-10-09T11:43:17;15.33;;;7.03;;
82938;SDS011;72714;52.744;4.900;2023-10-09T11:45:49;14.38;;;6.80;;
82938;SDS011;72714;52.744;4.900;2023-10-09T11:48:21;16.57;;;6.83;;
82938;SDS011;72714;52.744;4.900;2023-10-09T11:50:51;17.85;;;7.22;;
82938;SDS011;72714;52.744;4.900;2023-10-09T11:53:18;16.43;;;6.90;;
82938;SDS011;72714;52.744;4.900;2023-10-09T11:55:47;16.17;;;6.50;;
82938;SDS011;72714;52.744;4.900;2023-10-09T11:58:14;16.50;;;6.65;;
82938;SDS011;72714;52.744;4.900;2023-10-09T12:00:48;17.55;;;6.72;;
82938;SDS011;72714;52.744;4.900;2023-10-09T12:03:14;17.45;;;6.90;;
82938;SDS011;72714;52.744;4.900;2023-10-09T12:05:41;17.73;;;6.85;;
82938;SDS011;72714;52.744;4.900;2023-10-09T12:08:09;16.17;;;6.78;;
82938;SDS011;72714;52.744;4.900;2023-10-09T12:10:36;15.35;;;6.82;;
82938;SDS011;72714;52.744;4.900;2023-10-09T12:13:04;18.38;;;6.82;;
82938;SDS011;72714;52.744;4.900;2023-10-09T12:15:31;14.30;;;6.50;;
82938;SDS011;72714;52.744;4.900;2023-10-09T12:18:09;15.68;;;6.85;;
82938;SDS011;72714;52.744;4.900;2023-10-09T12:20:40;16.13;;;6.93;;
82938;SDS011;72714;52.744;4.900;2023-10-09T12:23:15;17.48;;;6.75;;
82938;SDS011;72714;52.744;4.900;2023-10-09T12:25:40;17.40;;;7.20;;
82938;SDS011;72714;52.744;4.900;2023-10-09T12:28:08;18.20;;;7.00;;
82938;SDS011;72714;52.744;4.900;2023-10-09T12:30:37;18.27;;;7.13;;
82938;SDS011;72714;52.744;4.900;2023-10-09T12:33:07;15.63;;;6.83;;
82938;SDS011;72714;52.744;4.900;2023-10-09T12:35:39;17.08;;;6.85;;
82938;SDS011;72714;52.744;4.900;2023-10-09T12:38:06;19.20;;;7.22;;
82938;SDS011;72714;52.744;4.900;2023-10-09T12:40:34;16.13;;;6.97;;
82938;SDS011;72714;52.744;4.900;2023-10-09T12:43:01;18.33;;;6.63;;
82938;SDS011;72714;52.744;4.900;2023-10-09T12:45:26;16.58;;;6.50;;
82938;SDS011;72714;52.744;4.900;2023-10-09T12:47:55;15.88;;;6.70;;
82938;SDS011;72714;52.744;4.900;2023-10-09T12:50:27;18.33;;;6.82;;
82938;SDS011;72714;52.744;4.900;2023-10-09T12:52:57;14.88;;;6.70;;
82938;SDS011;72714;52.744;4.900;2023-10-09T12:55:27;12.60;;;6.38;;
82938;SDS011;72714;52.744;4.900;2023-10-09T12:58:06;14.70;;;6.10;;
82938;SDS011;72714;52.744;4.900;2023-10-09T13:00:36;15.30;;;6.90;;
82938;SDS011;72714;52.744;4.900;2023-10-09T13:03:04;16.15;;;6.45;;
82938;SDS011;72714;52.744;4.900;2023-10-09T13:05:42;15.50;;;6.78;;
82938;SDS011;72714;52.744;4.900;2023-10-09T13:08:21;18.35;;;6.60;;
82938;SDS011;72714;52.744;4.900;2023-10-09T13:10:49;14.88;;;6.80;;
82938;SDS011;72714;52.744;4.900;2023-10-09T13:13:38;17.33;;;7.07;;
82938;SDS011;72714;52.744;4.900;2023-10-09T13:16:06;14.70;;;6.90;;
82938;SDS011;72714;52.744;4.900;2023-10-09T13:18:32;15.80;;;6.40;;
82938;SDS011;72714;52.744;4.900;2023-10-09T13:20:58;17.67;;;6.25;;
82938;SDS011;72714;52.744;4.900;2023-10-09T13:23:28;13.98;;;6.05;;
82938;SDS011;72714;52.744;4.900;2023-10-09T13:26:04;14.32;;;6.45;;
82938;SDS011;72714;52.744;4.900;2023-10-09T13:28:42;16.48;;;6.57;;
82938;SDS011;72714;52.744;4.900;2023-10-09T13:31:12;15.77;;;6.40;;
82938;SDS011;72714;52.744;4.900;2023-10-09T13:33:42;15.60;;;6.90;;
82938;SDS011;72714;52.744;4.900;2023-10-09T13:36:09;17.73;;;6.93;;
82938;SDS011;72714;52.744;4.900;2023-10-09T13:38:43;15.55;;;6.72;;
82938;SDS011;72714;52.744;4.900;2023-10-09T13:41:09;16.17;;;7.47;;
82938;SDS011;72714;52.744;4.900;2023-10-09T13:43:41;15.23;;;6.90;;
82938;SDS011;72714;52.744;4.900;2023-10-09T13:46:10;14.07;;;6.50;;
82938;SDS011;72714;52.744;4.900;2023-10-09T13:48:42;16.15;;;6.90;;
82938;SDS011;72714;52.744;4.900;2023-10-09T13:51:12;15.43;;;6.72;;
82938;SDS011;72714;52.744;4.900;2023-10-09T13:53:45;14.93;;;6.78;;
82938;SDS011;72714;52.744;4.900;2023-10-09T13:56:14;16.50;;;6.80;;
82938;SDS011;72714;52.744;4.900;2023-10-09T13:58:52;16.60;;;7.20;;
82938;SDS011;72714;52.744;4.900;2023-10-09T14:01:20;13.40;;;6.85;;
82938;SDS011;72714;52.744;4.900;2023-10-09T14:03:58;13.25;;;6.32;;
82938;SDS011;72714;52.744;4.900;2023-10-09T14:06:25;18.38;;;7.05;;
82938;SDS011;72714;52.744;4.900;2023-10-09T14:08:58;12.23;;;6.10;;
82938;SDS011;72714;52.744;4.900;2023-10-09T14:11:24;15.32;;;5.78;;
82938;SDS011;72714;52.744;4.900;2023-10-09T14:13:50;12.82;;;5.95;;
82938;SDS011;72714;52.744;4.900;2023-10-09T14:16:17;15.65;;;6.18;;
82938;SDS011;72714;52.744;4.900;2023-10-09T14:18:58;15.40;;;6.30;;
82938;SDS011;72714;52.744;4.900;2023-10-09T14:21:25;15.77;;;6.60;;
82938;SDS011;72714;52.744;4.900;2023-10-09T14:23:54;20.88;;;7.25;;
82938;SDS011;72714;52.744;4.900;2023-10-09T14:26:22;17.90;;;6.68;;
82938;SDS011;72714;52.744;4.900;2023-10-09T14:28:52;13.75;;;5.25;;
82938;SDS011;72714;52.744;4.900;2023-10-09T14:31:18;12.87;;;5.10;;
82938;SDS011;72714;52.744;4.900;2023-10-09T14:33:51;10.10;;;4.78;;
82938;SDS011;72714;52.744;4.900;2023-10-09T14:36:18;13.20;;;4.60;;
82938;SDS011;72714;52.744;4.900;2023-10-09T14:38:43;9.53;;;3.97;;
82938;SDS011;72714;52.744;4.900;2023-10-09T14:41:12;8.73;;;3.90;;
82938;SDS011;72714;52.744;4.900;2023-10-09T14:43:38;10.57;;;3.85;;
82938;SDS011;72714;52.744;4.900;2023-10-09T14:46:04;10.93;;;4.10;;
82938;SDS011;72714;52.744;4.900;2023-10-09T14:48:36;10.77;;;4.00;;
82938;SDS011;72714;52.744;4.900;2023-10-09T14:51:03;10.75;;;4.25;;
82938;SDS011;72714;52.744;4.900;2023-10-09T14:53:35;13.40;;;4.70;;
82938;SDS011;72714;52.744;4.900;2023-10-09T14:56:01;12.48;;;4.90;;
82938;SDS011;72714;52.744;4.900;2023-10-09T14:58:28;11.68;;;4.50;;
82938;SDS011;72714;52.744;4.900;2023-10-09T15:00:55;13.88;;;5.47;;
82938;SDS011;72714;52.744;4.900;2023-10-09T15:03:21;15.00;;;5.63;;
82938;SDS011;72714;52.744;4.900;2023-10-09T15:05:51;12.90;;;5.25;;
82938;SDS011;72714;52.744;4.900;2023-10-09T15:08:16;11.40;;;4.65;;
82938;SDS011;72714;52.744;4.900;2023-10-09T15:10:46;13.27;;;4.50;;
82938;SDS011;72714;52.744;4.900;2023-10-09T15:13:17;10.07;;;3.95;;
82938;SDS011;72714;52.744;4.900;2023-10-09T15:15:43;9.40;;;4.03;;
82938;SDS011;72714;52.744;4.900;2023-10-09T15:18:09;9.93;;;3.67;;
82938;SDS011;72714;52.744;4.900;2023-10-09T15:20:38;11.25;;;4.43;;
82938;SDS011;72714;52.744;4.900;2023-10-09T15:23:05;9.40;;;3.87;;
82938;SDS011;72714;52.744;4.900;2023-10-09T15:25:31;11.68;;;4.18;;
82938;SDS011;72714;52.744;4.900;2023-10-09T15:27:56;11.20;;;3.90;;
82938;SDS011;72714;52.744;4.900;2023-10-09T15:30:25;11.10;;;3.83;;
82938;SDS011;72714;52.744;4.900;2023-10-09T15:32:53;10.63;;;3.60;;
82938;SDS011;72714;52.744;4.900;2023-10-09T15:35:22;11.25;;;3.85;;
82938;SDS011;72714;52.744;4.900;2023-10-09T15:37:47;9.77;;;4.10;;
82938;SDS011;72714;52.744;4.900;2023-10-09T15:40:13;10.90;;;4.30;;
82938;SDS011;72714;52.744;4.900;2023-10-09T15:42:43;11.93;;;4.40;;